LIRM

Grazzanise Air Base

Airport
ICAO code
LIRM
Summary
ICAO Region
EUR
ICAO Territory
Location

Grazzanise, Campania

Serving
Grazzanise
Elevation
30 ft
Coordinates
41° 3' 29" N , 14° 4' 58" E
KCC
Metar
Observation
LIRM 031955Z 25004KT 9999 FEW015 SCT080 09/07 Q1024
Station
Grazzanise
Date/Time
2023-02-03 19:55:00
Wind direction
250°
Wind speed
04 kts
Lowest cloud amount
few clouds
Temperature
9°C
Dew point
7°C
Humidity
87%
QNH
1024 hPa
Weather condition
n/a

Grazzanise Air Base is an Italian Air Force airbase 1.2 nm south of Grazzanise, in the Province of Caserta in the region of Campania, Italy.

Climatology

Warm mediterranean climate (Köppen climate classification Csa)

Runways

Designator Length Width Surface Rops
6/24 2991 30 ASP No/No

Airport map

Aerial View

SKYbrary Partners:

Safety knowledge contributed by: